sensor_id;sensor_type;location;lat;lon;timestamp;P1;durP1;ratioP1;P2;durP2;ratioP2
72125;SDS011;59999;51.676;22.650;2023-05-07T00:00:21;7.05;;;2.25;;
72125;SDS011;59999;51.676;22.650;2023-05-07T00:03:08;6.18;;;1.38;;
72125;SDS011;59999;51.676;22.650;2023-05-07T00:05:34;11.02;;;2.58;;
72125;SDS011;59999;51.676;22.650;2023-05-07T00:08:00;6.73;;;1.67;;
72125;SDS011;59999;51.676;22.650;2023-05-07T00:10:26;7.82;;;2.05;;
72125;SDS011;59999;51.676;22.650;2023-05-07T00:12:52;7.40;;;2.03;;
72125;SDS011;59999;51.676;22.650;2023-05-07T00:15:18;7.05;;;1.70;;
72125;SDS011;59999;51.676;22.650;2023-05-07T00:17:44;6.90;;;1.93;;
72125;SDS011;59999;51.676;22.650;2023-05-07T00:20:10;5.30;;;1.88;;
72125;SDS011;59999;51.676;22.650;2023-05-07T00:22:36;5.68;;;1.55;;
72125;SDS011;59999;51.676;22.650;2023-05-07T00:25:02;5.18;;;1.15;;
72125;SDS011;59999;51.676;22.650;2023-05-07T00:27:28;5.73;;;1.57;;
72125;SDS011;59999;51.676;22.650;2023-05-07T00:29:54;4.85;;;1.10;;
72125;SDS011;59999;51.676;22.650;2023-05-07T00:32:20;5.18;;;1.63;;
72125;SDS011;59999;51.676;22.650;2023-05-07T00:34:46;3.87;;;1.00;;
72125;SDS011;59999;51.676;22.650;2023-05-07T00:37:12;5.13;;;1.08;;
72125;SDS011;59999;51.676;22.650;2023-05-07T00:39:39;4.72;;;1.25;;
72125;SDS011;59999;51.676;22.650;2023-05-07T00:42:05;6.00;;;1.67;;
72125;SDS011;59999;51.676;22.650;2023-05-07T00:44:31;6.90;;;2.10;;
72125;SDS011;59999;51.676;22.650;2023-05-07T00:46:57;4.53;;;1.33;;
72125;SDS011;59999;51.676;22.650;2023-05-07T00:49:29;4.35;;;1.25;;
72125;SDS011;59999;51.676;22.650;2023-05-07T00:52:02;4.28;;;1.10;;
72125;SDS011;59999;51.676;22.650;2023-05-07T00:54:28;6.00;;;1.52;;
72125;SDS011;59999;51.676;22.650;2023-05-07T00:56:54;7.37;;;1.77;;
72125;SDS011;59999;51.676;22.650;2023-05-07T00:59:21;5.53;;;1.75;;
72125;SDS011;59999;51.676;22.650;2023-05-07T01:01:47;7.55;;;2.40;;
72125;SDS011;59999;51.676;22.650;2023-05-07T01:04:13;5.73;;;1.67;;
72125;SDS011;59999;51.676;22.650;2023-05-07T01:06:40;6.57;;;2.03;;
72125;SDS011;59999;51.676;22.650;2023-05-07T01:09:07;6.53;;;1.88;;
72125;SDS011;59999;51.676;22.650;2023-05-07T01:11:34;6.32;;;1.88;;
72125;SDS011;59999;51.676;22.650;2023-05-07T01:14:00;6.27;;;1.60;;
72125;SDS011;59999;51.676;22.650;2023-05-07T01:16:27;4.40;;;1.23;;
72125;SDS011;59999;51.676;22.650;2023-05-07T01:18:53;5.10;;;1.13;;
72125;SDS011;59999;51.676;22.650;2023-05-07T01:21:19;6.38;;;1.98;;
72125;SDS011;59999;51.676;22.650;2023-05-07T01:23:52;5.53;;;1.50;;
72125;SDS011;59999;51.676;22.650;2023-05-07T01:26:20;6.88;;;1.88;;
72125;SDS011;59999;51.676;22.650;2023-05-07T01:28:46;4.82;;;1.15;;
72125;SDS011;59999;51.676;22.650;2023-05-07T01:31:12;5.20;;;1.30;;
72125;SDS011;59999;51.676;22.650;2023-05-07T01:33:40;6.03;;;1.87;;
72125;SDS011;59999;51.676;22.650;2023-05-07T01:36:07;5.78;;;1.40;;
72125;SDS011;59999;51.676;22.650;2023-05-07T01:38:35;4.78;;;1.33;;
72125;SDS011;59999;51.676;22.650;2023-05-07T01:41:02;4.35;;;0.73;;
72125;SDS011;59999;51.676;22.650;2023-05-07T01:43:29;8.10;;;1.83;;
72125;SDS011;59999;51.676;22.650;2023-05-07T01:45:56;6.27;;;1.43;;
72125;SDS011;59999;51.676;22.650;2023-05-07T01:48:24;5.18;;;1.40;;
72125;SDS011;59999;51.676;22.650;2023-05-07T01:50:50;4.95;;;1.33;;
72125;SDS011;59999;51.676;22.650;2023-05-07T01:53:16;3.72;;;0.80;;
72125;SDS011;59999;51.676;22.650;2023-05-07T01:55:42;7.40;;;1.87;;
72125;SDS011;59999;51.676;22.650;2023-05-07T01:58:08;5.13;;;1.40;;
72125;SDS011;59999;51.676;22.650;2023-05-07T02:00:34;4.85;;;1.30;;
72125;SDS011;59999;51.676;22.650;2023-05-07T02:03:00;4.63;;;1.40;;
72125;SDS011;59999;51.676;22.650;2023-05-07T02:05:26;4.90;;;1.30;;
72125;SDS011;59999;51.676;22.650;2023-05-07T02:07:52;4.65;;;1.15;;
72125;SDS011;59999;51.676;22.650;2023-05-07T02:10:18;7.97;;;1.30;;
72125;SDS011;59999;51.676;22.650;2023-05-07T02:12:44;4.75;;;1.30;;
72125;SDS011;59999;51.676;22.650;2023-05-07T02:15:10;4.53;;;1.13;;
72125;SDS011;59999;51.676;22.650;2023-05-07T02:17:39;4.28;;;1.38;;
72125;SDS011;59999;51.676;22.650;2023-05-07T02:20:23;6.25;;;1.27;;
72125;SDS011;59999;51.676;22.650;2023-05-07T02:22:50;4.55;;;1.10;;
72125;SDS011;59999;51.676;22.650;2023-05-07T02:25:15;6.15;;;1.38;;
72125;SDS011;59999;51.676;22.650;2023-05-07T02:27:41;3.83;;;1.10;;
72125;SDS011;59999;51.676;22.650;2023-05-07T02:30:07;5.30;;;1.40;;
72125;SDS011;59999;51.676;22.650;2023-05-07T02:32:33;4.68;;;1.38;;
72125;SDS011;59999;51.676;22.650;2023-05-07T02:34:59;4.95;;;1.05;;
72125;SDS011;59999;51.676;22.650;2023-05-07T02:37:25;3.83;;;0.98;;
72125;SDS011;59999;51.676;22.650;2023-05-07T02:39:51;3.97;;;1.00;;
72125;SDS011;59999;51.676;22.650;2023-05-07T02:42:17;3.55;;;1.10;;
72125;SDS011;59999;51.676;22.650;2023-05-07T02:44:43;4.57;;;1.10;;
72125;SDS011;59999;51.676;22.650;2023-05-07T02:47:09;5.77;;;1.23;;
72125;SDS011;59999;51.676;22.650;2023-05-07T02:49:36;4.25;;;1.10;;
72125;SDS011;59999;51.676;22.650;2023-05-07T02:52:01;4.30;;;1.00;;
72125;SDS011;59999;51.676;22.650;2023-05-07T02:54:27;4.38;;;0.80;;
72125;SDS011;59999;51.676;22.650;2023-05-07T02:56:53;4.80;;;0.90;;
72125;SDS011;59999;51.676;22.650;2023-05-07T02:59:19;4.78;;;0.93;;
72125;SDS011;59999;51.676;22.650;2023-05-07T03:01:45;4.33;;;1.17;;
72125;SDS011;59999;51.676;22.650;2023-05-07T03:04:11;4.70;;;1.13;;
72125;SDS011;59999;51.676;22.650;2023-05-07T03:06:37;4.73;;;1.10;;
72125;SDS011;59999;51.676;22.650;2023-05-07T03:09:03;4.50;;;1.08;;
72125;SDS011;59999;51.676;22.650;2023-05-07T03:11:29;3.67;;;0.88;;
72125;SDS011;59999;51.676;22.650;2023-05-07T03:13:55;2.25;;;0.50;;
72125;SDS011;59999;51.676;22.650;2023-05-07T03:16:21;4.87;;;1.37;;
72125;SDS011;59999;51.676;22.650;2023-05-07T03:18:47;4.57;;;1.38;;
72125;SDS011;59999;51.676;22.650;2023-05-07T03:21:13;4.80;;;1.25;;
72125;SDS011;59999;51.676;22.650;2023-05-07T03:23:39;5.70;;;1.20;;
72125;SDS011;59999;51.676;22.650;2023-05-07T03:26:05;5.75;;;1.38;;
72125;SDS011;59999;51.676;22.650;2023-05-07T03:28:31;5.28;;;1.60;;
72125;SDS011;59999;51.676;22.650;2023-05-07T03:30:56;7.03;;;1.57;;
72125;SDS011;59999;51.676;22.650;2023-05-07T03:33:23;5.88;;;1.17;;
72125;SDS011;59999;51.676;22.650;2023-05-07T03:35:49;5.20;;;1.17;;
72125;SDS011;59999;51.676;22.650;2023-05-07T03:38:15;5.57;;;1.20;;
72125;SDS011;59999;51.676;22.650;2023-05-07T03:40:41;4.57;;;1.30;;
72125;SDS011;59999;51.676;22.650;2023-05-07T03:43:07;6.13;;;1.70;;
72125;SDS011;59999;51.676;22.650;2023-05-07T03:45:33;5.85;;;1.30;;
72125;SDS011;59999;51.676;22.650;2023-05-07T03:47:59;5.28;;;1.60;;
72125;SDS011;59999;51.676;22.650;2023-05-07T03:50:25;4.67;;;1.40;;
72125;SDS011;59999;51.676;22.650;2023-05-07T03:52:51;6.35;;;1.65;;
72125;SDS011;59999;51.676;22.650;2023-05-07T03:55:17;5.20;;;1.60;;
72125;SDS011;59999;51.676;22.650;2023-05-07T03:57:43;5.47;;;1.43;;
72125;SDS011;59999;51.676;22.650;2023-05-07T04:00:09;6.13;;;1.70;;
72125;SDS011;59999;51.676;22.650;2023-05-07T04:02:36;6.25;;;1.70;;
72125;SDS011;59999;51.676;22.650;2023-05-07T04:05:01;6.47;;;1.83;;
72125;SDS011;59999;51.676;22.650;2023-05-07T04:07:28;6.63;;;1.55;;
72125;SDS011;59999;51.676;22.650;2023-05-07T04:09:53;5.57;;;1.70;;
72125;SDS011;59999;51.676;22.650;2023-05-07T04:12:20;7.18;;;2.15;;
72125;SDS011;59999;51.676;22.650;2023-05-07T04:14:45;5.43;;;1.80;;
72125;SDS011;59999;51.676;22.650;2023-05-07T04:17:11;6.30;;;1.67;;
72125;SDS011;59999;51.676;22.650;2023-05-07T04:19:37;6.53;;;1.47;;
72125;SDS011;59999;51.676;22.650;2023-05-07T04:22:03;4.93;;;1.20;;
72125;SDS011;59999;51.676;22.650;2023-05-07T04:24:32;6.45;;;1.83;;
72125;SDS011;59999;51.676;22.650;2023-05-07T04:26:58;6.85;;;1.60;;
72125;SDS011;59999;51.676;22.650;2023-05-07T04:29:24;6.17;;;1.80;;
72125;SDS011;59999;51.676;22.650;2023-05-07T04:31:50;6.88;;;1.95;;
72125;SDS011;59999;51.676;22.650;2023-05-07T04:34:16;5.70;;;1.90;;
72125;SDS011;59999;51.676;22.650;2023-05-07T04:36:42;7.53;;;1.75;;
72125;SDS011;59999;51.676;22.650;2023-05-07T04:39:08;6.10;;;1.70;;
72125;SDS011;59999;51.676;22.650;2023-05-07T04:41:36;6.65;;;1.80;;
72125;SDS011;59999;51.676;22.650;2023-05-07T04:44:02;6.95;;;1.83;;
72125;SDS011;59999;51.676;22.650;2023-05-07T04:46:29;7.60;;;2.00;;
72125;SDS011;59999;51.676;22.650;2023-05-07T04:48:55;5.82;;;1.73;;
72125;SDS011;59999;51.676;22.650;2023-05-07T04:51:22;5.63;;;1.52;;
72125;SDS011;59999;51.676;22.650;2023-05-07T04:53:48;6.40;;;1.80;;
72125;SDS011;59999;51.676;22.650;2023-05-07T04:56:14;5.75;;;1.52;;
72125;SDS011;59999;51.676;22.650;2023-05-07T04:58:40;7.40;;;2.20;;
72125;SDS011;59999;51.676;22.650;2023-05-07T05:01:06;6.43;;;2.42;;
72125;SDS011;59999;51.676;22.650;2023-05-07T05:03:32;5.73;;;2.10;;
72125;SDS011;59999;51.676;22.650;2023-05-07T05:05:58;5.80;;;1.60;;
72125;SDS011;59999;51.676;22.650;2023-05-07T05:08:25;7.20;;;1.73;;
72125;SDS011;59999;51.676;22.650;2023-05-07T05:10:51;4.43;;;1.15;;
72125;SDS011;59999;51.676;22.650;2023-05-07T05:13:17;6.37;;;1.97;;
72125;SDS011;59999;51.676;22.650;2023-05-07T05:15:43;7.20;;;2.35;;
72125;SDS011;59999;51.676;22.650;2023-05-07T05:18:09;6.32;;;1.58;;
72125;SDS011;59999;51.676;22.650;2023-05-07T05:20:35;6.32;;;1.75;;
72125;SDS011;59999;51.676;22.650;2023-05-07T05:23:00;5.17;;;1.80;;
72125;SDS011;59999;51.676;22.650;2023-05-07T05:25:27;4.57;;;1.42;;
72125;SDS011;59999;51.676;22.650;2023-05-07T05:27:53;6.97;;;1.83;;
72125;SDS011;59999;51.676;22.650;2023-05-07T05:30:20;6.40;;;2.00;;
72125;SDS011;59999;51.676;22.650;2023-05-07T05:32:46;7.63;;;1.70;;
72125;SDS011;59999;51.676;22.650;2023-05-07T05:35:12;5.93;;;1.70;;
72125;SDS011;59999;51.676;22.650;2023-05-07T05:37:37;5.10;;;1.77;;
72125;SDS011;59999;51.676;22.650;2023-05-07T05:40:04;6.50;;;1.60;;
72125;SDS011;59999;51.676;22.650;2023-05-07T05:42:30;4.97;;;1.40;;
72125;SDS011;59999;51.676;22.650;2023-05-07T05:44:56;6.70;;;1.90;;
72125;SDS011;59999;51.676;22.650;2023-05-07T05:47:22;8.13;;;2.63;;
72125;SDS011;59999;51.676;22.650;2023-05-07T05:49:48;7.50;;;2.58;;
72125;SDS011;59999;51.676;22.650;2023-05-07T05:52:14;7.05;;;2.20;;
72125;SDS011;59999;51.676;22.650;2023-05-07T05:54:40;6.20;;;1.90;;
72125;SDS011;59999;51.676;22.650;2023-05-07T05:57:06;7.78;;;2.42;;
72125;SDS011;59999;51.676;22.650;2023-05-07T05:59:32;5.90;;;1.80;;
72125;SDS011;59999;51.676;22.650;2023-05-07T06:01:58;5.77;;;1.63;;
72125;SDS011;59999;51.676;22.650;2023-05-07T06:04:24;5.03;;;1.48;;
72125;SDS011;59999;51.676;22.650;2023-05-07T06:06:50;5.20;;;1.65;;
72125;SDS011;59999;51.676;22.650;2023-05-07T06:09:16;6.00;;;2.10;;
72125;SDS011;59999;51.676;22.650;2023-05-07T06:11:42;7.00;;;2.10;;
72125;SDS011;59999;51.676;22.650;2023-05-07T06:14:08;6.78;;;2.38;;
72125;SDS011;59999;51.676;22.650;2023-05-07T06:16:34;8.70;;;2.40;;
72125;SDS011;59999;51.676;22.650;2023-05-07T06:19:00;6.30;;;1.70;;
72125;SDS011;59999;51.676;22.650;2023-05-07T06:21:26;7.53;;;3.22;;
72125;SDS011;59999;51.676;22.650;2023-05-07T06:23:52;5.32;;;1.80;;
72125;SDS011;59999;51.676;22.650;2023-05-07T06:26:17;5.37;;;1.73;;
72125;SDS011;59999;51.676;22.650;2023-05-07T06:28:43;6.20;;;1.70;;
72125;SDS011;59999;51.676;22.650;2023-05-07T06:31:16;6.23;;;2.30;;
72125;SDS011;59999;51.676;22.650;2023-05-07T06:33:48;6.95;;;2.40;;
72125;SDS011;59999;51.676;22.650;2023-05-07T06:36:14;6.50;;;2.20;;
72125;SDS011;59999;51.676;22.650;2023-05-07T06:38:40;5.88;;;1.77;;
72125;SDS011;59999;51.676;22.650;2023-05-07T06:41:06;5.53;;;1.90;;
72125;SDS011;59999;51.676;22.650;2023-05-07T06:43:33;5.33;;;1.87;;
72125;SDS011;59999;51.676;22.650;2023-05-07T06:45:59;5.40;;;1.80;;
72125;SDS011;59999;51.676;22.650;2023-05-07T06:48:25;5.57;;;1.73;;
72125;SDS011;59999;51.676;22.650;2023-05-07T06:50:50;5.82;;;1.70;;
72125;SDS011;59999;51.676;22.650;2023-05-07T06:53:17;5.80;;;1.83;;
72125;SDS011;59999;51.676;22.650;2023-05-07T06:55:42;5.00;;;1.50;;
72125;SDS011;59999;51.676;22.650;2023-05-07T06:58:09;5.13;;;1.63;;
72125;SDS011;59999;51.676;22.650;2023-05-07T07:00:34;6.20;;;1.80;;
72125;SDS011;59999;51.676;22.650;2023-05-07T07:03:00;6.10;;;1.73;;
72125;SDS011;59999;51.676;22.650;2023-05-07T07:05:26;5.00;;;1.63;;
72125;SDS011;59999;51.676;22.650;2023-05-07T07:07:53;4.93;;;1.30;;
72125;SDS011;59999;51.676;22.650;2023-05-07T07:10:19;6.28;;;1.77;;
72125;SDS011;59999;51.676;22.650;2023-05-07T07:12:46;4.70;;;1.48;;
72125;SDS011;59999;51.676;22.650;2023-05-07T07:15:12;4.32;;;1.30;;
72125;SDS011;59999;51.676;22.650;2023-05-07T07:17:39;4.70;;;1.47;;
72125;SDS011;59999;51.676;22.650;2023-05-07T07:20:05;5.47;;;1.48;;
72125;SDS011;59999;51.676;22.650;2023-05-07T07:22:31;6.70;;;1.40;;
72125;SDS011;59999;51.676;22.650;2023-05-07T07:24:57;5.30;;;1.50;;
72125;SDS011;59999;51.676;22.650;2023-05-07T07:27:23;5.75;;;1.60;;
72125;SDS011;59999;51.676;22.650;2023-05-07T07:29:49;6.65;;;1.17;;
72125;SDS011;59999;51.676;22.650;2023-05-07T07:32:15;4.88;;;1.50;;
72125;SDS011;59999;51.676;22.650;2023-05-07T07:34:41;6.40;;;1.50;;
72125;SDS011;59999;51.676;22.650;2023-05-07T07:37:07;6.10;;;1.95;;
72125;SDS011;59999;51.676;22.650;2023-05-07T07:39:33;4.28;;;0.98;;
72125;SDS011;59999;51.676;22.650;2023-05-07T07:41:59;5.37;;;1.57;;
72125;SDS011;59999;51.676;22.650;2023-05-07T07:44:27;4.95;;;1.40;;
72125;SDS011;59999;51.676;22.650;2023-05-07T07:46:54;6.03;;;1.67;;
72125;SDS011;59999;51.676;22.650;2023-05-07T07:49:19;5.00;;;1.52;;
72125;SDS011;59999;51.676;22.650;2023-05-07T07:51:45;5.28;;;1.90;;
72125;SDS011;59999;51.676;22.650;2023-05-07T07:54:11;4.97;;;1.77;;
72125;SDS011;59999;51.676;22.650;2023-05-07T07:56:37;5.20;;;1.30;;
72125;SDS011;59999;51.676;22.650;2023-05-07T07:59:03;5.10;;;1.43;;
72125;SDS011;59999;51.676;22.650;2023-05-07T08:01:29;4.63;;;1.25;;
72125;SDS011;59999;51.676;22.650;2023-05-07T08:03:56;5.03;;;1.60;;
72125;SDS011;59999;51.676;22.650;2023-05-07T08:06:24;5.68;;;1.13;;
72125;SDS011;59999;51.676;22.650;2023-05-07T08:08:51;5.40;;;1.40;;
72125;SDS011;59999;51.676;22.650;2023-05-07T08:11:17;6.53;;;1.38;;
72125;SDS011;59999;51.676;22.650;2023-05-07T08:13:43;6.07;;;1.60;;
72125;SDS011;59999;51.676;22.650;2023-05-07T08:16:12;5.18;;;1.40;;
72125;SDS011;59999;51.676;22.650;2023-05-07T08:18:37;5.82;;;1.40;;
72125;SDS011;59999;51.676;22.650;2023-05-07T08:21:03;4.17;;;1.20;;
72125;SDS011;59999;51.676;22.650;2023-05-07T08:23:29;4.63;;;1.27;;
72125;SDS011;59999;51.676;22.650;2023-05-07T08:25:56;5.60;;;1.40;;
72125;SDS011;59999;51.676;22.650;2023-05-07T08:28:21;5.22;;;1.30;;
72125;SDS011;59999;51.676;22.650;2023-05-07T08:30:50;5.22;;;1.50;;
72125;SDS011;59999;51.676;22.650;2023-05-07T08:33:17;6.22;;;1.70;;
72125;SDS011;59999;51.676;22.650;2023-05-07T08:35:43;5.05;;;1.40;;
72125;SDS011;59999;51.676;22.650;2023-05-07T08:38:08;3.63;;;1.03;;
72125;SDS011;59999;51.676;22.650;2023-05-07T08:40:38;4.35;;;1.02;;
72125;SDS011;59999;51.676;22.650;2023-05-07T08:43:06;4.35;;;1.40;;
72125;SDS011;59999;51.676;22.650;2023-05-07T08:45:33;4.22;;;1.30;;
72125;SDS011;59999;51.676;22.650;2023-05-07T08:48:02;5.00;;;1.20;;
72125;SDS011;59999;51.676;22.650;2023-05-07T08:50:30;4.88;;;1.27;;
72125;SDS011;59999;51.676;22.650;2023-05-07T08:52:56;3.88;;;1.17;;
72125;SDS011;59999;51.676;22.650;2023-05-07T08:55:22;3.90;;;1.08;;
72125;SDS011;59999;51.676;22.650;2023-05-07T08:57:49;6.03;;;1.10;;
72125;SDS011;59999;51.676;22.650;2023-05-07T09:00:16;4.32;;;1.13;;
72125;SDS011;59999;51.676;22.650;2023-05-07T09:02:42;5.50;;;1.00;;
72125;SDS011;59999;51.676;22.650;2023-05-07T09:05:08;3.65;;;0.90;;
72125;SDS011;59999;51.676;22.650;2023-05-07T09:07:34;4.22;;;1.10;;
72125;SDS011;59999;51.676;22.650;2023-05-07T09:10:03;4.23;;;1.07;;
72125;SDS011;59999;51.676;22.650;2023-05-07T09:12:30;3.67;;;0.80;;
72125;SDS011;59999;51.676;22.650;2023-05-07T09:14:56;3.90;;;1.08;;
72125;SDS011;59999;51.676;22.650;2023-05-07T09:17:22;3.85;;;0.90;;
72125;SDS011;59999;51.676;22.650;2023-05-07T09:19:48;3.70;;;1.00;;
72125;SDS011;59999;51.676;22.650;2023-05-07T09:22:14;4.30;;;0.85;;
72125;SDS011;59999;51.676;22.650;2023-05-07T09:24:40;4.82;;;1.77;;
72125;SDS011;59999;51.676;22.650;2023-05-07T09:27:06;4.53;;;1.43;;
72125;SDS011;59999;51.676;22.650;2023-05-07T09:29:34;3.90;;;1.00;;
72125;SDS011;59999;51.676;22.650;2023-05-07T09:32:06;3.92;;;1.02;;
72125;SDS011;59999;51.676;22.650;2023-05-07T09:34:33;4.15;;;1.02;;
72125;SDS011;59999;51.676;22.650;2023-05-07T09:37:02;4.75;;;1.40;;
72125;SDS011;59999;51.676;22.650;2023-05-07T09:39:40;4.00;;;1.02;;
72125;SDS011;59999;51.676;22.650;2023-05-07T09:42:10;4.60;;;1.20;;
72125;SDS011;59999;51.676;22.650;2023-05-07T09:44:38;3.97;;;1.30;;
72125;SDS011;59999;51.676;22.650;2023-05-07T09:47:05;3.97;;;1.20;;
72125;SDS011;59999;51.676;22.650;2023-05-07T09:49:33;3.25;;;0.93;;
72125;SDS011;59999;51.676;22.650;2023-05-07T09:52:01;3.80;;;1.00;;
72125;SDS011;59999;51.676;22.650;2023-05-07T09:54:29;4.55;;;1.17;;
72125;SDS011;59999;51.676;22.650;2023-05-07T09:56:56;4.10;;;0.98;;
72125;SDS011;59999;51.676;22.650;2023-05-07T09:59:22;3.80;;;1.10;;
72125;SDS011;59999;51.676;22.650;2023-05-07T10:01:49;3.45;;;1.00;;
72125;SDS011;59999;51.676;22.650;2023-05-07T10:04:17;2.60;;;0.55;;
72125;SDS011;59999;51.676;22.650;2023-05-07T10:06:45;3.42;;;1.05;;
72125;SDS011;59999;51.676;22.650;2023-05-07T10:09:12;3.70;;;1.02;;
72125;SDS011;59999;51.676;22.650;2023-05-07T10:11:40;3.90;;;1.30;;
72125;SDS011;59999;51.676;22.650;2023-05-07T10:14:06;4.63;;;1.27;;
72125;SDS011;59999;51.676;22.650;2023-05-07T10:16:34;3.38;;;0.90;;
72125;SDS011;59999;51.676;22.650;2023-05-07T10:19:02;4.55;;;1.10;;
72125;SDS011;59999;51.676;22.650;2023-05-07T10:21:39;4.50;;;1.30;;
72125;SDS011;59999;51.676;22.650;2023-05-07T10:24:15;4.88;;;1.13;;
72125;SDS011;59999;51.676;22.650;2023-05-07T10:26:47;4.55;;;1.55;;
72125;SDS011;59999;51.676;22.650;2023-05-07T10:29:21;5.05;;;1.25;;
72125;SDS011;59999;51.676;22.650;2023-05-07T10:31:58;4.35;;;0.93;;
72125;SDS011;59999;51.676;22.650;2023-05-07T10:34:45;6.22;;;1.20;;
72125;SDS011;59999;51.676;22.650;2023-05-07T10:37:14;3.15;;;0.82;;
72125;SDS011;59999;51.676;22.650;2023-05-07T10:39:40;3.90;;;1.10;;
72125;SDS011;59999;51.676;22.650;2023-05-07T10:42:13;4.82;;;1.25;;
72125;SDS011;59999;51.676;22.650;2023-05-07T10:44:40;5.30;;;1.60;;
72125;SDS011;59999;51.676;22.650;2023-05-07T10:49:35;2.88;;;0.70;;
72125;SDS011;59999;51.676;22.650;2023-05-07T10:52:18;4.07;;;1.10;;
72125;SDS011;59999;51.676;22.650;2023-05-07T10:54:48;3.67;;;0.73;;
72125;SDS011;59999;51.676;22.650;2023-05-07T10:57:50;7.07;;;1.10;;
72125;SDS011;59999;51.676;22.650;2023-05-07T11:05:33;4.40;;;1.13;;
72125;SDS011;59999;51.676;22.650;2023-05-07T11:08:00;4.85;;;1.30;;
72125;SDS011;59999;51.676;22.650;2023-05-07T11:16:20;6.88;;;1.20;;
72125;SDS011;59999;51.676;22.650;2023-05-07T11:18:48;3.83;;;1.00;;
72125;SDS011;59999;51.676;22.650;2023-05-07T11:21:31;4.82;;;0.90;;
72125;SDS011;59999;51.676;22.650;2023-05-07T11:24:00;3.53;;;0.75;;
72125;SDS011;59999;51.676;22.650;2023-05-07T11:26:28;4.45;;;1.25;;
72125;SDS011;59999;51.676;22.650;2023-05-07T11:28:55;4.53;;;1.10;;
72125;SDS011;59999;51.676;22.650;2023-05-07T11:31:23;4.55;;;0.90;;
72125;SDS011;59999;51.676;22.650;2023-05-07T11:33:51;4.22;;;1.00;;
72125;SDS011;59999;51.676;22.650;2023-05-07T11:36:18;4.00;;;0.98;;
72125;SDS011;59999;51.676;22.650;2023-05-07T11:38:46;5.07;;;1.50;;
72125;SDS011;59999;51.676;22.650;2023-05-07T11:41:12;4.70;;;1.58;;
72125;SDS011;59999;51.676;22.650;2023-05-07T11:43:40;4.20;;;1.23;;
72125;SDS011;59999;51.676;22.650;2023-05-07T11:46:20;4.90;;;1.50;;
72125;SDS011;59999;51.676;22.650;2023-05-07T11:48:46;4.00;;;1.30;;
72125;SDS011;59999;51.676;22.650;2023-05-07T11:51:13;3.75;;;1.00;;
72125;SDS011;59999;51.676;22.650;2023-05-07T11:53:43;4.68;;;1.20;;
72125;SDS011;59999;51.676;22.650;2023-05-07T11:56:10;4.83;;;1.60;;
72125;SDS011;59999;51.676;22.650;2023-05-07T11:58:40;4.65;;;1.30;;
72125;SDS011;59999;51.676;22.650;2023-05-07T12:01:08;5.18;;;1.50;;
72125;SDS011;59999;51.676;22.650;2023-05-07T12:03:39;5.32;;;1.40;;
72125;SDS011;59999;51.676;22.650;2023-05-07T12:06:09;6.25;;;1.42;;
72125;SDS011;59999;51.676;22.650;2023-05-07T12:08:37;4.27;;;1.20;;
72125;SDS011;59999;51.676;22.650;2023-05-07T12:11:06;6.03;;;1.40;;
72125;SDS011;59999;51.676;22.650;2023-05-07T12:13:34;5.65;;;1.10;;
72125;SDS011;59999;51.676;22.650;2023-05-07T12:16:00;4.63;;;1.13;;
72125;SDS011;59999;51.676;22.650;2023-05-07T12:18:28;4.53;;;0.95;;
72125;SDS011;59999;51.676;22.650;2023-05-07T12:20:55;7.37;;;1.10;;
72125;SDS011;59999;51.676;22.650;2023-05-07T12:23:21;5.13;;;1.38;;
72125;SDS011;59999;51.676;22.650;2023-05-07T12:25:48;3.72;;;1.10;;
72125;SDS011;59999;51.676;22.650;2023-05-07T12:28:14;3.67;;;1.02;;
72125;SDS011;59999;51.676;22.650;2023-05-07T12:30:44;4.83;;;1.10;;
72125;SDS011;59999;51.676;22.650;2023-05-07T12:33:11;5.85;;;1.25;;
72125;SDS011;59999;51.676;22.650;2023-05-07T12:35:40;5.05;;;1.50;;
72125;SDS011;59999;51.676;22.650;2023-05-07T12:38:09;4.55;;;1.25;;
72125;SDS011;59999;51.676;22.650;2023-05-07T12:40:38;3.58;;;1.17;;
72125;SDS011;59999;51.676;22.650;2023-05-07T12:43:08;5.20;;;1.27;;
72125;SDS011;59999;51.676;22.650;2023-05-07T12:45:42;5.20;;;1.10;;
72125;SDS011;59999;51.676;22.650;2023-05-07T12:48:09;3.78;;;1.08;;
72125;SDS011;59999;51.676;22.650;2023-05-07T12:50:36;5.60;;;1.50;;
72125;SDS011;59999;51.676;22.650;2023-05-07T12:53:05;4.87;;;1.40;;
72125;SDS011;59999;51.676;22.650;2023-05-07T12:55:46;4.63;;;1.10;;
72125;SDS011;59999;51.676;22.650;2023-05-07T12:58:20;4.28;;;1.10;;
72125;SDS011;59999;51.676;22.650;2023-05-07T13:00:51;4.75;;;1.50;;
72125;SDS011;59999;51.676;22.650;2023-05-07T13:03:25;10.13;;;1.48;;
72125;SDS011;59999;51.676;22.650;2023-05-07T13:05:54;3.10;;;0.80;;
72125;SDS011;59999;51.676;22.650;2023-05-07T13:08:25;5.70;;;1.02;;
72125;SDS011;59999;51.676;22.650;2023-05-07T13:10:52;4.68;;;1.45;;
72125;SDS011;59999;51.676;22.650;2023-05-07T13:13:19;5.25;;;1.70;;
72125;SDS011;59999;51.676;22.650;2023-05-07T13:15:46;5.05;;;1.50;;
72125;SDS011;59999;51.676;22.650;2023-05-07T13:18:12;2.95;;;0.90;;
72125;SDS011;59999;51.676;22.650;2023-05-07T13:20:38;3.55;;;1.00;;
72125;SDS011;59999;51.676;22.650;2023-05-07T13:23:04;5.00;;;1.42;;
72125;SDS011;59999;51.676;22.650;2023-05-07T13:25:30;3.88;;;1.17;;
72125;SDS011;59999;51.676;22.650;2023-05-07T13:27:56;4.30;;;1.00;;
72125;SDS011;59999;51.676;22.650;2023-05-07T13:30:23;4.88;;;0.95;;
72125;SDS011;59999;51.676;22.650;2023-05-07T13:32:48;4.35;;;0.98;;
72125;SDS011;59999;51.676;22.650;2023-05-07T13:35:16;3.72;;;0.93;;
72125;SDS011;59999;51.676;22.650;2023-05-07T13:37:42;4.70;;;1.13;;
72125;SDS011;59999;51.676;22.650;2023-05-07T13:40:08;3.58;;;1.00;;
72125;SDS011;59999;51.676;22.650;2023-05-07T13:42:34;4.22;;;1.17;;
72125;SDS011;59999;51.676;22.650;2023-05-07T13:45:00;2.83;;;0.73;;
72125;SDS011;59999;51.676;22.650;2023-05-07T13:47:28;6.28;;;1.00;;
72125;SDS011;59999;51.676;22.650;2023-05-07T13:49:54;5.23;;;1.20;;
72125;SDS011;59999;51.676;22.650;2023-05-07T13:52:20;6.03;;;1.20;;
72125;SDS011;59999;51.676;22.650;2023-05-07T13:54:46;3.65;;;1.00;;
72125;SDS011;59999;51.676;22.650;2023-05-07T13:57:12;3.67;;;0.70;;
72125;SDS011;59999;51.676;22.650;2023-05-07T13:59:38;3.67;;;1.15;;
72125;SDS011;59999;51.676;22.650;2023-05-07T14:02:04;4.65;;;1.00;;
72125;SDS011;59999;51.676;22.650;2023-05-07T14:04:30;4.40;;;1.00;;
72125;SDS011;59999;51.676;22.650;2023-05-07T14:06:56;4.07;;;1.20;;
72125;SDS011;59999;51.676;22.650;2023-05-07T14:09:22;11.23;;;4.43;;
72125;SDS011;59999;51.676;22.650;2023-05-07T14:11:48;19.45;;;10.05;;
72125;SDS011;59999;51.676;22.650;2023-05-07T14:14:17;6.22;;;2.38;;
72125;SDS011;59999;51.676;22.650;2023-05-07T14:16:43;9.50;;;4.77;;
72125;SDS011;59999;51.676;22.650;2023-05-07T14:19:11;8.43;;;3.80;;
72125;SDS011;59999;51.676;22.650;2023-05-07T14:21:37;16.25;;;6.45;;
72125;SDS011;59999;51.676;22.650;2023-05-07T14:24:03;162.45;;;60.08;;
72125;SDS011;59999;51.676;22.650;2023-05-07T14:26:32;84.20;;;34.88;;
72125;SDS011;59999;51.676;22.650;2023-05-07T14:28:58;202.13;;;99.73;;
72125;SDS011;59999;51.676;22.650;2023-05-07T14:31:24;93.78;;;48.35;;
72125;SDS011;59999;51.676;22.650;2023-05-07T14:33:50;14.07;;;8.90;;
72125;SDS011;59999;51.676;22.650;2023-05-07T14:36:17;5.43;;;2.17;;
72125;SDS011;59999;51.676;22.650;2023-05-07T14:38:45;6.10;;;2.60;;
72125;SDS011;59999;51.676;22.650;2023-05-07T14:41:12;4.75;;;1.85;;
72125;SDS011;59999;51.676;22.650;2023-05-07T14:43:38;4.93;;;1.80;;
72125;SDS011;59999;51.676;22.650;2023-05-07T14:46:04;10.75;;;5.53;;